sensor_id;sensor_type;location;lat;lon;timestamp;pressure;altitude;pressure_sealevel;temperature;humidity
76460;BME280;65299;46.084;18.762;2023-07-31T05:24:30;100473.41;;;21.37;68.19
76460;BME280;65299;46.084;18.762;2023-07-31T05:27:31;100474.66;;;21.60;67.85
76460;BME280;65299;46.084;18.762;2023-07-31T05:30:31;100475.31;;;21.36;68.45
76460;BME280;65299;46.084;18.762;2023-07-31T05:33:32;100471.50;;;21.37;68.49
76460;BME280;65299;46.084;18.762;2023-07-31T05:36:32;100479.91;;;21.36;67.60
76460;BME280;65299;46.084;18.762;2023-07-31T05:39:33;100501.28;;;21.70;67.32
76460;BME280;65299;46.084;18.762;2023-07-31T05:42:33;100498.31;;;21.42;68.20
76460;BME280;65299;46.084;18.762;2023-07-31T05:45:35;100502.78;;;21.38;67.93
76460;BME280;65299;46.084;18.762;2023-07-31T05:48:36;100496.38;;;21.22;68.55
76460;BME280;65299;46.084;18.762;2023-07-31T05:51:36;100507.44;;;21.09;69.65
76460;BME280;65299;46.084;18.762;2023-07-31T05:54:36;100499.69;;;21.07;69.94
76460;BME280;65299;46.084;18.762;2023-07-31T05:57:37;100501.59;;;21.07;69.71
76460;BME280;65299;46.084;18.762;2023-07-31T06:00:37;100498.94;;;20.90;70.91
76460;BME280;65299;46.084;18.762;2023-07-31T06:03:38;100507.94;;;21.02;70.23
76460;BME280;65299;46.084;18.762;2023-07-31T06:06:38;100511.06;;;21.13;69.43
76460;BME280;65299;46.084;18.762;2023-07-31T06:09:38;100505.66;;;21.13;69.25
76460;BME280;65299;46.084;18.762;2023-07-31T06:12:39;100517.97;;;21.22;69.18
76460;BME280;65299;46.084;18.762;2023-07-31T06:15:39;100506.88;;;21.44;68.47
76460;BME280;65299;46.084;18.762;2023-07-31T06:18:39;100503.75;;;21.55;67.60
76460;BME280;65299;46.084;18.762;2023-07-31T06:21:40;100506.53;;;21.67;66.48
76460;BME280;65299;46.084;18.762;2023-07-31T06:24:43;100513.13;;;21.98;65.21
76460;BME280;65299;46.084;18.762;2023-07-31T06:27:44;100512.78;;;22.00;64.35
76460;BME280;65299;46.084;18.762;2023-07-31T06:30:44;100508.81;;;21.97;63.77
76460;BME280;65299;46.084;18.762;2023-07-31T06:33:45;100512.19;;;22.27;62.13
76460;BME280;65299;46.084;18.762;2023-07-31T06:36:45;100507.16;;;22.50;61.60
76460;BME280;65299;46.084;18.762;2023-07-31T06:39:45;100519.53;;;22.51;58.87
76460;BME280;65299;46.084;18.762;2023-07-31T06:42:46;100517.38;;;22.44;56.22
76460;BME280;65299;46.084;18.762;2023-07-31T06:45:46;100518.19;;;22.57;57.32
76460;BME280;65299;46.084;18.762;2023-07-31T06:48:48;100513.00;;;22.40;56.39
76460;BME280;65299;46.084;18.762;2023-07-31T06:51:49;100514.13;;;22.51;55.33
76460;BME280;65299;46.084;18.762;2023-07-31T06:55:02;100517.38;;;22.56;54.36
76460;BME280;65299;46.084;18.762;2023-07-31T06:58:03;100514.16;;;22.75;54.20
76460;BME280;65299;46.084;18.762;2023-07-31T07:01:04;100509.00;;;22.82;53.95
76460;BME280;65299;46.084;18.762;2023-07-31T07:04:04;100509.44;;;22.72;52.72
76460;BME280;65299;46.084;18.762;2023-07-31T07:07:05;100513.06;;;22.88;51.65
76460;BME280;65299;46.084;18.762;2023-07-31T07:10:06;100511.44;;;23.11;52.78
76460;BME280;65299;46.084;18.762;2023-07-31T07:13:07;100518.44;;;23.12;53.68
76460;BME280;65299;46.084;18.762;2023-07-31T07:16:07;100515.84;;;23.16;51.71
76460;BME280;65299;46.084;18.762;2023-07-31T07:19:08;100525.88;;;23.39;52.30
76460;BME280;65299;46.084;18.762;2023-07-31T07:22:09;100518.88;;;23.14;51.96
76460;BME280;65299;46.084;18.762;2023-07-31T07:25:10;100518.66;;;23.07;52.20
76460;BME280;65299;46.084;18.762;2023-07-31T07:28:11;100534.13;;;23.19;52.59
76460;BME280;65299;46.084;18.762;2023-07-31T07:31:11;100537.59;;;23.31;51.75
76460;BME280;65299;46.084;18.762;2023-07-31T07:34:12;100528.25;;;23.41;50.73
76460;BME280;65299;46.084;18.762;2023-07-31T07:37:12;100528.13;;;23.49;50.56
76460;BME280;65299;46.084;18.762;2023-07-31T07:40:12;100532.69;;;23.61;50.04
76460;BME280;65299;46.084;18.762;2023-07-31T07:43:13;100524.53;;;23.73;50.11
76460;BME280;65299;46.084;18.762;2023-07-31T07:46:13;100526.78;;;23.99;51.42
76460;BME280;65299;46.084;18.762;2023-07-31T07:49:13;100531.88;;;24.00;50.80
76460;BME280;65299;46.084;18.762;2023-07-31T07:52:14;100536.56;;;24.15;50.87
76460;BME280;65299;46.084;18.762;2023-07-31T07:55:14;100537.72;;;24.14;50.28
76460;BME280;65299;46.084;18.762;2023-07-31T07:58:15;100538.59;;;24.18;50.02
76460;BME280;65299;46.084;18.762;2023-07-31T08:01:15;100535.38;;;24.28;48.90
76460;BME280;65299;46.084;18.762;2023-07-31T08:04:16;100538.53;;;24.30;48.94
76460;BME280;65299;46.084;18.762;2023-07-31T08:07:16;100541.31;;;24.18;50.28
76460;BME280;65299;46.084;18.762;2023-07-31T08:10:17;100536.13;;;24.13;48.94
76460;BME280;65299;46.084;18.762;2023-07-31T08:13:17;100536.63;;;24.03;50.18
76460;BME280;65299;46.084;18.762;2023-07-31T08:16:17;100539.75;;;24.33;51.44
76460;BME280;65299;46.084;18.762;2023-07-31T08:19:18;100531.34;;;24.22;49.53
76460;BME280;65299;46.084;18.762;2023-07-31T08:22:18;100538.00;;;24.56;50.59
76460;BME280;65299;46.084;18.762;2023-07-31T08:25:19;100537.09;;;24.80;49.56
76460;BME280;65299;46.084;18.762;2023-07-31T08:28:19;100526.31;;;24.83;47.19
76460;BME280;65299;46.084;18.762;2023-07-31T08:31:20;100541.09;;;24.54;47.74
76460;BME280;65299;46.084;18.762;2023-07-31T08:34:20;100533.72;;;24.70;48.14
76460;BME280;65299;46.084;18.762;2023-07-31T08:37:20;100538.94;;;24.76;46.95
76460;BME280;65299;46.084;18.762;2023-07-31T08:40:21;100539.69;;;24.60;47.63
76460;BME280;65299;46.084;18.762;2023-07-31T08:43:27;100531.28;;;24.65;47.11
76460;BME280;65299;46.084;18.762;2023-07-31T08:46:28;100533.00;;;25.05;48.39
76460;BME280;65299;46.084;18.762;2023-07-31T08:49:29;100535.41;;;25.06;46.76
76460;BME280;65299;46.084;18.762;2023-07-31T08:52:30;100536.97;;;25.07;47.17
76460;BME280;65299;46.084;18.762;2023-07-31T08:55:32;100547.75;;;25.38;48.20
76460;BME280;65299;46.084;18.762;2023-07-31T08:58:35;100544.44;;;25.29;45.46
76460;BME280;65299;46.084;18.762;2023-07-31T09:01:42;100538.63;;;25.12;42.95
76460;BME280;65299;46.084;18.762;2023-07-31T09:04:43;100541.41;;;25.15;44.76
76460;BME280;65299;46.084;18.762;2023-07-31T09:07:46;100551.44;;;24.96;44.10
76460;BME280;65299;46.084;18.762;2023-07-31T09:10:48;100549.81;;;25.26;44.07
76460;BME280;65299;46.084;18.762;2023-07-31T09:13:50;100549.44;;;25.43;43.93
76460;BME280;65299;46.084;18.762;2023-07-31T09:16:55;100552.97;;;25.28;42.88
76460;BME280;65299;46.084;18.762;2023-07-31T09:19:56;100553.38;;;25.30;43.70
76460;BME280;65299;46.084;18.762;2023-07-31T09:23:05;100548.72;;;25.46;43.04
76460;BME280;65299;46.084;18.762;2023-07-31T09:26:06;100543.03;;;25.35;43.50
76460;BME280;65299;46.084;18.762;2023-07-31T09:29:07;100542.44;;;25.42;41.99
76460;BME280;65299;46.084;18.762;2023-07-31T09:32:18;100548.59;;;25.58;39.77
76460;BME280;65299;46.084;18.762;2023-07-31T09:35:20;100542.78;;;25.60;40.22
76460;BME280;65299;46.084;18.762;2023-07-31T09:38:20;100535.31;;;25.53;39.84
76460;BME280;65299;46.084;18.762;2023-07-31T09:41:21;100537.50;;;25.32;38.90
76460;BME280;65299;46.084;18.762;2023-07-31T09:44:22;100542.09;;;25.28;39.78
76460;BME280;65299;46.084;18.762;2023-07-31T09:47:37;100530.00;;;25.25;39.87
76460;BME280;65299;46.084;18.762;2023-07-31T09:50:38;100538.44;;;25.55;40.21
76460;BME280;65299;46.084;18.762;2023-07-31T09:53:39;100528.56;;;25.66;39.28
76460;BME280;65299;46.084;18.762;2023-07-31T09:56:45;100529.94;;;25.76;39.51
76460;BME280;65299;46.084;18.762;2023-07-31T09:59:47;100523.84;;;25.63;40.69
76460;BME280;65299;46.084;18.762;2023-07-31T10:02:50;100520.53;;;25.35;39.26
76460;BME280;65299;46.084;18.762;2023-07-31T10:05:53;100527.69;;;26.00;40.54
76460;BME280;65299;46.084;18.762;2023-07-31T10:08:56;100534.72;;;26.01;39.52
76460;BME280;65299;46.084;18.762;2023-07-31T10:12:00;100528.78;;;25.96;38.65
76460;BME280;65299;46.084;18.762;2023-07-31T10:15:03;100527.84;;;25.88;38.76
76460;BME280;65299;46.084;18.762;2023-07-31T10:18:06;100529.13;;;25.94;40.52
76460;BME280;65299;46.084;18.762;2023-07-31T10:21:07;100520.38;;;26.04;39.51
76460;BME280;65299;46.084;18.762;2023-07-31T10:24:08;100519.16;;;26.44;39.74
76460;BME280;65299;46.084;18.762;2023-07-31T10:27:10;100524.97;;;26.19;37.84
76460;BME280;65299;46.084;18.762;2023-07-31T10:30:16;100519.25;;;26.05;38.14
76460;BME280;65299;46.084;18.762;2023-07-31T10:33:17;100523.47;;;26.03;38.50
76460;BME280;65299;46.084;18.762;2023-07-31T10:36:20;100511.66;;;25.95;38.47
76460;BME280;65299;46.084;18.762;2023-07-31T10:39:37;100522.28;;;25.81;39.02
76460;BME280;65299;46.084;18.762;2023-07-31T10:42:51;100505.63;;;26.05;38.47
76460;BME280;65299;46.084;18.762;2023-07-31T10:45:53;100503.19;;;26.00;38.96
76460;BME280;65299;46.084;18.762;2023-07-31T10:49:01;100501.63;;;26.18;38.10
76460;BME280;65299;46.084;18.762;2023-07-31T10:52:03;100494.47;;;26.10;38.87
76460;BME280;65299;46.084;18.762;2023-07-31T10:58:24;100485.91;;;25.89;37.78
76460;BME280;65299;46.084;18.762;2023-07-31T11:01:54;100477.00;;;26.11;37.45
76460;BME280;65299;46.084;18.762;2023-07-31T11:05:06;100486.69;;;26.32;38.15
76460;BME280;65299;46.084;18.762;2023-07-31T11:11:13;100484.56;;;26.21;37.43
76460;BME280;65299;46.084;18.762;2023-07-31T11:14:14;100476.59;;;26.32;39.29
76460;BME280;65299;46.084;18.762;2023-07-31T11:17:14;100478.84;;;26.26;36.47
76460;BME280;65299;46.084;18.762;2023-07-31T11:20:14;100470.69;;;26.26;37.16
76460;BME280;65299;46.084;18.762;2023-07-31T11:23:17;100483.69;;;26.37;38.04
76460;BME280;65299;46.084;18.762;2023-07-31T11:26:18;100479.94;;;26.71;38.23
76460;BME280;65299;46.084;18.762;2023-07-31T11:29:19;100471.34;;;26.69;37.95
76460;BME280;65299;46.084;18.762;2023-07-31T11:32:20;100469.34;;;26.66;37.71
76460;BME280;65299;46.084;18.762;2023-07-31T11:35:20;100466.78;;;26.50;37.01
76460;BME280;65299;46.084;18.762;2023-07-31T11:38:22;100468.66;;;26.46;37.56
76460;BME280;65299;46.084;18.762;2023-07-31T11:41:28;100463.25;;;26.72;36.94
76460;BME280;65299;46.084;18.762;2023-07-31T11:44:38;100458.84;;;26.64;36.96
76460;BME280;65299;46.084;18.762;2023-07-31T11:47:38;100458.41;;;26.62;37.33
76460;BME280;65299;46.084;18.762;2023-07-31T11:50:39;100448.94;;;26.75;38.78
76460;BME280;65299;46.084;18.762;2023-07-31T11:53:45;100449.78;;;26.57;38.26
76460;BME280;65299;46.084;18.762;2023-07-31T11:56:48;100448.41;;;26.96;38.49
76460;BME280;65299;46.084;18.762;2023-07-31T11:59:50;100438.06;;;26.79;36.10
76460;BME280;65299;46.084;18.762;2023-07-31T12:02:51;100447.47;;;26.81;36.63
76460;BME280;65299;46.084;18.762;2023-07-31T12:05:53;100436.81;;;26.99;38.25
76460;BME280;65299;46.084;18.762;2023-07-31T12:09:01;100430.31;;;26.81;36.41
76460;BME280;65299;46.084;18.762;2023-07-31T12:12:01;100439.16;;;27.00;38.10
76460;BME280;65299;46.084;18.762;2023-07-31T12:15:14;100420.72;;;27.20;37.65
76460;BME280;65299;46.084;18.762;2023-07-31T12:18:19;100423.50;;;27.24;35.45
76460;BME280;65299;46.084;18.762;2023-07-31T12:21:20;100418.97;;;27.05;36.55
76460;BME280;65299;46.084;18.762;2023-07-31T12:24:21;100416.66;;;27.07;37.21
76460;BME280;65299;46.084;18.762;2023-07-31T12:27:21;100418.66;;;27.10;36.98
76460;BME280;65299;46.084;18.762;2023-07-31T12:30:29;100403.91;;;27.15;37.87
76460;BME280;65299;46.084;18.762;2023-07-31T12:33:34;100398.38;;;27.07;35.45
76460;BME280;65299;46.084;18.762;2023-07-31T12:36:35;100399.28;;;27.19;36.77
76460;BME280;65299;46.084;18.762;2023-07-31T12:39:36;100399.38;;;27.26;37.13
76460;BME280;65299;46.084;18.762;2023-07-31T12:42:36;100405.06;;;27.14;37.33
76460;BME280;65299;46.084;18.762;2023-07-31T12:45:37;100391.25;;;27.29;36.73
76460;BME280;65299;46.084;18.762;2023-07-31T12:48:38;100387.63;;;27.18;37.37
76460;BME280;65299;46.084;18.762;2023-07-31T12:51:39;100392.03;;;27.00;36.81
76460;BME280;65299;46.084;18.762;2023-07-31T12:54:39;100381.97;;;27.04;36.60
76460;BME280;65299;46.084;18.762;2023-07-31T12:57:40;100377.03;;;27.13;36.71
76460;BME280;65299;46.084;18.762;2023-07-31T13:00:42;100376.09;;;27.32;37.19
76460;BME280;65299;46.084;18.762;2023-07-31T13:03:42;100372.63;;;27.01;36.01
76460;BME280;65299;46.084;18.762;2023-07-31T13:06:43;100364.09;;;27.06;36.80
76460;BME280;65299;46.084;18.762;2023-07-31T13:09:43;100354.00;;;27.07;36.73
76460;BME280;65299;46.084;18.762;2023-07-31T13:12:44;100363.56;;;27.27;36.33
76460;BME280;65299;46.084;18.762;2023-07-31T13:15:44;100359.78;;;27.35;37.47
76460;BME280;65299;46.084;18.762;2023-07-31T13:18:45;100362.59;;;27.42;37.41
76460;BME280;65299;46.084;18.762;2023-07-31T13:21:45;100364.53;;;27.42;36.47
76460;BME280;65299;46.084;18.762;2023-07-31T13:24:46;100360.38;;;27.18;35.75
76460;BME280;65299;46.084;18.762;2023-07-31T13:27:47;100354.03;;;27.40;36.18
76460;BME280;65299;46.084;18.762;2023-07-31T13:30:47;100353.47;;;26.98;35.87
76460;BME280;65299;46.084;18.762;2023-07-31T13:33:47;100352.53;;;27.17;37.86
76460;BME280;65299;46.084;18.762;2023-07-31T13:36:48;100343.56;;;27.46;36.99
76460;BME280;65299;46.084;18.762;2023-07-31T13:39:48;100345.53;;;27.92;38.17
76460;BME280;65299;46.084;18.762;2023-07-31T13:42:49;100345.81;;;27.77;37.21
76460;BME280;65299;46.084;18.762;2023-07-31T13:45:49;100340.63;;;27.65;35.85
76460;BME280;65299;46.084;18.762;2023-07-31T13:48:49;100330.44;;;27.58;35.03
76460;BME280;65299;46.084;18.762;2023-07-31T13:51:50;100332.06;;;27.30;35.85
76460;BME280;65299;46.084;18.762;2023-07-31T13:54:50;100328.69;;;27.40;36.55
76460;BME280;65299;46.084;18.762;2023-07-31T13:57:51;100333.84;;;27.15;36.54
76460;BME280;65299;46.084;18.762;2023-07-31T14:00:53;100328.50;;;27.22;36.22
76460;BME280;65299;46.084;18.762;2023-07-31T14:03:53;100323.22;;;27.36;37.64
76460;BME280;65299;46.084;18.762;2023-07-31T14:06:55;100314.25;;;27.36;37.65
76460;BME280;65299;46.084;18.762;2023-07-31T14:09:56;100319.94;;;27.24;38.04
76460;BME280;65299;46.084;18.762;2023-07-31T14:12:56;100309.66;;;27.10;37.46
76460;BME280;65299;46.084;18.762;2023-07-31T14:15:57;100314.28;;;27.39;38.10
76460;BME280;65299;46.084;18.762;2023-07-31T14:18:57;100300.84;;;26.87;37.99
76460;BME280;65299;46.084;18.762;2023-07-31T14:21:59;100300.69;;;26.76;39.17
76460;BME280;65299;46.084;18.762;2023-07-31T14:25:00;100293.72;;;26.79;38.33
76460;BME280;65299;46.084;18.762;2023-07-31T14:28:01;100292.91;;;27.08;38.56
76460;BME280;65299;46.084;18.762;2023-07-31T14:31:01;100286.28;;;27.42;37.84
76460;BME280;65299;46.084;18.762;2023-07-31T14:34:02;100280.75;;;27.79;38.88
76460;BME280;65299;46.084;18.762;2023-07-31T14:37:02;100280.66;;;27.68;36.34
76460;BME280;65299;46.084;18.762;2023-07-31T14:40:03;100291.34;;;27.91;37.45
76460;BME280;65299;46.084;18.762;2023-07-31T14:43:04;100284.59;;;27.74;37.55
76460;BME280;65299;46.084;18.762;2023-07-31T14:46:05;100278.44;;;27.84;36.97
76460;BME280;65299;46.084;18.762;2023-07-31T14:49:05;100284.06;;;28.74;37.81
76460;BME280;65299;46.084;18.762;2023-07-31T14:52:06;100287.81;;;29.73;34.04
76460;BME280;65299;46.084;18.762;2023-07-31T14:55:07;100281.53;;;30.08;33.01
76460;BME280;65299;46.084;18.762;2023-07-31T14:58:09;100278.72;;;30.50;32.19
76460;BME280;65299;46.084;18.762;2023-07-31T15:01:11;100282.09;;;30.93;31.59
76460;BME280;65299;46.084;18.762;2023-07-31T15:04:11;100285.47;;;31.15;32.26
76460;BME280;65299;46.084;18.762;2023-07-31T15:07:12;100280.63;;;30.64;32.12
76460;BME280;65299;46.084;18.762;2023-07-31T15:10:13;100286.00;;;30.92;31.52
76460;BME280;65299;46.084;18.762;2023-07-31T15:13:14;100273.97;;;31.34;31.42
76460;BME280;65299;46.084;18.762;2023-07-31T15:16:14;100266.06;;;31.46;30.75
76460;BME280;65299;46.084;18.762;2023-07-31T15:19:15;100265.44;;;31.76;30.51
76460;BME280;65299;46.084;18.762;2023-07-31T15:22:16;100262.22;;;32.25;29.71
76460;BME280;65299;46.084;18.762;2023-07-31T15:25:16;100270.25;;;31.65;31.62
76460;BME280;65299;46.084;18.762;2023-07-31T15:28:18;100256.09;;;31.12;31.31
76460;BME280;65299;46.084;18.762;2023-07-31T15:31:18;100264.44;;;31.56;31.35
76460;BME280;65299;46.084;18.762;2023-07-31T15:34:18;100251.72;;;31.72;30.72
76460;BME280;65299;46.084;18.762;2023-07-31T15:37:19;100253.00;;;30.09;32.40
76460;BME280;65299;46.084;18.762;2023-07-31T15:40:19;100250.09;;;28.64;36.17
76460;BME280;65299;46.084;18.762;2023-07-31T15:43:20;100250.50;;;27.98;36.70
76460;BME280;65299;46.084;18.762;2023-07-31T15:46:21;100251.09;;;27.74;37.02
76460;BME280;65299;46.084;18.762;2023-07-31T15:49:22;100246.81;;;27.76;38.39
76460;BME280;65299;46.084;18.762;2023-07-31T15:52:22;100252.47;;;27.50;38.92
76460;BME280;65299;46.084;18.762;2023-07-31T15:55:22;100255.25;;;27.21;39.96
76460;BME280;65299;46.084;18.762;2023-07-31T15:58:24;100243.22;;;27.65;38.75
76460;BME280;65299;46.084;18.762;2023-07-31T16:01:25;100244.59;;;27.42;39.15
76460;BME280;65299;46.084;18.762;2023-07-31T16:04:25;100244.13;;;28.45;37.45
76460;BME280;65299;46.084;18.762;2023-07-31T16:07:26;100236.88;;;28.77;37.49
76460;BME280;65299;46.084;18.762;2023-07-31T16:10:27;100240.38;;;27.51;39.80
76460;BME280;65299;46.084;18.762;2023-07-31T16:13:27;100244.50;;;26.98;41.11
76460;BME280;65299;46.084;18.762;2023-07-31T16:16:27;100238.31;;;26.68;41.89
76460;BME280;65299;46.084;18.762;2023-07-31T16:19:28;100235.84;;;26.56;42.16
76460;BME280;65299;46.084;18.762;2023-07-31T16:22:28;100236.69;;;26.30;43.05
76460;BME280;65299;46.084;18.762;2023-07-31T16:25:29;100237.91;;;26.33;44.38
76460;BME280;65299;46.084;18.762;2023-07-31T16:28:29;100237.78;;;26.25;44.58
76460;BME280;65299;46.084;18.762;2023-07-31T16:31:30;100231.94;;;26.23;44.65
76460;BME280;65299;46.084;18.762;2023-07-31T16:34:31;100230.47;;;26.03;45.18
76460;BME280;65299;46.084;18.762;2023-07-31T16:37:31;100234.75;;;26.04;45.81
76460;BME280;65299;46.084;18.762;2023-07-31T16:40:32;100232.25;;;25.92;46.02
76460;BME280;65299;46.084;18.762;2023-07-31T16:43:32;100227.09;;;25.84;46.61
76460;BME280;65299;46.084;18.762;2023-07-31T16:46:32;100222.31;;;25.77;46.32
76460;BME280;65299;46.084;18.762;2023-07-31T16:49:33;100225.72;;;25.97;46.51
76460;BME280;65299;46.084;18.762;2023-07-31T16:52:33;100212.78;;;25.90;46.56
76460;BME280;65299;46.084;18.762;2023-07-31T16:55:34;100230.25;;;25.89;46.92
76460;BME280;65299;46.084;18.762;2023-07-31T16:58:35;100222.09;;;25.89;48.18
76460;BME280;65299;46.084;18.762;2023-07-31T17:01:35;100224.63;;;26.61;46.31
76460;BME280;65299;46.084;18.762;2023-07-31T17:04:36;100220.25;;;26.53;46.28
76460;BME280;65299;46.084;18.762;2023-07-31T17:07:36;100228.13;;;26.61;46.20
76460;BME280;65299;46.084;18.762;2023-07-31T17:10:37;100226.75;;;26.74;45.24
76460;BME280;65299;46.084;18.762;2023-07-31T17:13:37;100234.44;;;26.69;45.96
76460;BME280;65299;46.084;18.762;2023-07-31T17:16:37;100236.09;;;26.73;45.81
76460;BME280;65299;46.084;18.762;2023-07-31T17:19:38;100230.38;;;27.22;44.37
76460;BME280;65299;46.084;18.762;2023-07-31T17:22:38;100236.97;;;27.21;44.75
76460;BME280;65299;46.084;18.762;2023-07-31T17:25:39;100235.53;;;27.78;43.90
76460;BME280;65299;46.084;18.762;2023-07-31T17:28:39;100236.88;;;28.77;42.43
76460;BME280;65299;46.084;18.762;2023-07-31T17:31:40;100237.47;;;28.39;42.65
76460;BME280;65299;46.084;18.762;2023-07-31T17:34:41;100253.47;;;26.98;47.18
76460;BME280;65299;46.084;18.762;2023-07-31T17:37:43;100252.28;;;26.33;48.55
76460;BME280;65299;46.084;18.762;2023-07-31T17:40:43;100244.28;;;25.91;49.08
76460;BME280;65299;46.084;18.762;2023-07-31T17:43:44;100248.34;;;25.78;49.04
76460;BME280;65299;46.084;18.762;2023-07-31T17:46:45;100251.78;;;25.49;50.19
76460;BME280;65299;46.084;18.762;2023-07-31T17:49:47;100251.50;;;25.35;50.67
76460;BME280;65299;46.084;18.762;2023-07-31T17:52:47;100262.09;;;24.98;53.24
76460;BME280;65299;46.084;18.762;2023-07-31T17:55:48;100271.78;;;24.80;53.79
76460;BME280;65299;46.084;18.762;2023-07-31T17:58:48;100276.06;;;24.62;54.90
76460;BME280;65299;46.084;18.762;2023-07-31T18:01:49;100282.41;;;24.50;55.82
76460;BME280;65299;46.084;18.762;2023-07-31T18:04:49;100281.63;;;24.15;58.05
76460;BME280;65299;46.084;18.762;2023-07-31T18:07:49;100279.56;;;24.09;57.08
76460;BME280;65299;46.084;18.762;2023-07-31T18:10:50;100270.50;;;24.20;55.74
76460;BME280;65299;46.084;18.762;2023-07-31T18:13:50;100275.75;;;24.29;56.65
76460;BME280;65299;46.084;18.762;2023-07-31T18:16:51;100272.25;;;24.28;57.33
76460;BME280;65299;46.084;18.762;2023-07-31T18:19:51;100273.25;;;23.89;60.24
76460;BME280;65299;46.084;18.762;2023-07-31T18:22:52;100278.06;;;23.49;61.96
76460;BME280;65299;46.084;18.762;2023-07-31T18:25:52;100285.22;;;23.57;60.86
76460;BME280;65299;46.084;18.762;2023-07-31T18:28:53;100272.28;;;23.50;60.58
76460;BME280;65299;46.084;18.762;2023-07-31T18:31:53;100269.41;;;23.59;61.30
76460;BME280;65299;46.084;18.762;2023-07-31T18:34:54;100281.72;;;23.41;62.94
76460;BME280;65299;46.084;18.762;2023-07-31T18:37:54;100287.44;;;23.24;63.18
76460;BME280;65299;46.084;18.762;2023-07-31T18:40:54;100295.03;;;23.18;62.96
76460;BME280;65299;46.084;18.762;2023-07-31T18:43:56;100297.72;;;23.02;63.98
76460;BME280;65299;46.084;18.762;2023-07-31T18:46:56;100288.31;;;22.72;65.69
76460;BME280;65299;46.084;18.762;2023-07-31T18:49:57;100285.47;;;22.81;65.13
76460;BME280;65299;46.084;18.762;2023-07-31T18:52:57;100283.97;;;22.56;66.29
76460;BME280;65299;46.084;18.762;2023-07-31T18:55:58;100296.19;;;22.38;65.83
76460;BME280;65299;46.084;18.762;2023-07-31T18:58:58;100296.47;;;22.48;66.04
76460;BME280;65299;46.084;18.762;2023-07-31T19:02:00;100295.75;;;22.36;66.77
76460;BME280;65299;46.084;18.762;2023-07-31T19:05:01;100306.78;;;22.06;68.11
76460;BME280;65299;46.084;18.762;2023-07-31T19:08:02;100298.91;;;22.01;69.21
76460;BME280;65299;46.084;18.762;2023-07-31T19:11:04;100292.03;;;22.16;68.70
76460;BME280;65299;46.084;18.762;2023-07-31T19:14:05;100297.25;;;21.97;69.20
76460;BME280;65299;46.084;18.762;2023-07-31T19:17:06;100292.53;;;21.61;70.71
76460;BME280;65299;46.084;18.762;2023-07-31T19:20:07;100286.75;;;21.38;71.82
76460;BME280;65299;46.084;18.762;2023-07-31T19:23:07;100294.03;;;21.26;71.69
76460;BME280;65299;46.084;18.762;2023-07-31T19:26:07;100287.41;;;21.23;71.04
76460;BME280;65299;46.084;18.762;2023-07-31T19:29:09;100295.03;;;21.09;71.51
76460;BME280;65299;46.084;18.762;2023-07-31T19:32:11;100282.97;;;21.07;71.42
76460;BME280;65299;46.084;18.762;2023-07-31T19:35:14;100292.06;;;21.02;72.40
76460;BME280;65299;46.084;18.762;2023-07-31T19:38:15;100286.13;;;20.88;72.50
76460;BME280;65299;46.084;18.762;2023-07-31T19:41:15;100281.66;;;20.72;73.10
76460;BME280;65299;46.084;18.762;2023-07-31T19:44:15;100267.44;;;20.83;73.44
76460;BME280;65299;46.084;18.762;2023-07-31T19:47:16;100272.72;;;20.59;73.68
76460;BME280;65299;46.084;18.762;2023-07-31T19:50:16;100275.22;;;20.64;73.61
76460;BME280;65299;46.084;18.762;2023-07-31T19:53:17;100281.25;;;20.82;72.95
76460;BME280;65299;46.084;18.762;2023-07-31T19:56:18;100281.31;;;20.52;74.20
76460;BME280;65299;46.084;18.762;2023-07-31T19:59:18;100281.03;;;20.54;75.14
76460;BME280;65299;46.084;18.762;2023-07-31T20:02:19;100276.78;;;20.44;75.66
76460;BME280;65299;46.084;18.762;2023-07-31T20:05:19;100268.50;;;20.29;75.65
76460;BME280;65299;46.084;18.762;2023-07-31T20:08:19;100263.63;;;20.22;75.32
76460;BME280;65299;46.084;18.762;2023-07-31T20:11:20;100271.66;;;20.31;75.39
76460;BME280;65299;46.084;18.762;2023-07-31T20:14:20;100266.34;;;20.14;76.42
76460;BME280;65299;46.084;18.762;2023-07-31T20:17:22;100265.09;;;20.20;75.59
76460;BME280;65299;46.084;18.762;2023-07-31T20:20:23;100265.09;;;20.11;75.44
76460;BME280;65299;46.084;18.762;2023-07-31T20:23:23;100264.78;;;20.13;75.54
76460;BME280;65299;46.084;18.762;2023-07-31T20:26:24;100260.34;;;20.08;76.02
76460;BME280;65299;46.084;18.762;2023-07-31T20:29:24;100251.22;;;20.01;76.26
76460;BME280;65299;46.084;18.762;2023-07-31T20:32:25;100257.69;;;20.00;76.38
76460;BME280;65299;46.084;18.762;2023-07-31T20:35:25;100260.22;;;20.05;75.96
76460;BME280;65299;46.084;18.762;2023-07-31T20:38:26;100252.66;;;20.27;75.32
76460;BME280;65299;46.084;18.762;2023-07-31T20:41:26;100250.00;;;20.19;75.76
76460;BME280;65299;46.084;18.762;2023-07-31T20:44:26;100243.25;;;20.04;75.95
76460;BME280;65299;46.084;18.762;2023-07-31T20:47:27;100239.69;;;19.92;76.55
76460;BME280;65299;46.084;18.762;2023-07-31T20:50:27;100239.09;;;19.86;77.04
76460;BME280;65299;46.084;18.762;2023-07-31T20:53:29;100240.91;;;19.73;77.76
76460;BME280;65299;46.084;18.762;2023-07-31T20:56:30;100235.97;;;19.46;78.96
76460;BME280;65299;46.084;18.762;2023-07-31T20:59:30;100227.78;;;19.63;77.95
76460;BME280;65299;46.084;18.762;2023-07-31T21:02:31;100224.03;;;19.56;77.67
76460;BME280;65299;46.084;18.762;2023-07-31T21:05:31;100222.06;;;19.19;79.56